createdAt,value
2018-05-03T00:00:06.642Z,3.37
2018-05-03T00:02:39.469Z,3.73
2018-05-03T00:05:07.692Z,3.70
2018-05-03T00:07:36.746Z,3.10
2018-05-03T00:10:05.237Z,3.80
2018-05-03T00:12:41.874Z,3.37
2018-05-03T00:15:10.315Z,3.30
2018-05-03T00:17:44.594Z,4.40
2018-05-03T00:20:13.053Z,3.57
2018-05-03T00:22:56.074Z,3.97
2018-05-03T00:25:23.767Z,3.47
2018-05-03T00:27:52.583Z,3.67
2018-05-03T00:30:20.305Z,3.57
2018-05-03T00:32:49.785Z,3.30
2018-05-03T00:35:18.212Z,3.20
2018-05-03T00:37:47.064Z,3.80
2018-05-03T00:40:14.761Z,3.47
2018-05-03T00:42:44.218Z,3.30
2018-05-03T00:45:12.723Z,3.70
2018-05-03T00:47:41.368Z,3.93
2018-05-03T00:50:09.843Z,3.80
2018-05-03T00:52:44.877Z,3.63
2018-05-03T00:55:13.302Z,3.57
2018-05-03T00:57:42.006Z,4.03
2018-05-03T01:00:10.048Z,5.00
2018-05-03T01:02:39.847Z,3.80
2018-05-03T01:05:08.251Z,4.27
2018-05-03T01:07:37.711Z,3.90
2018-05-03T01:10:05.453Z,4.17
2018-05-03T01:12:33.893Z,3.90
2018-05-03T01:15:02.711Z,3.70
2018-05-03T01:17:31.714Z,3.53
2018-05-03T01:20:00.919Z,3.70
2018-05-03T01:22:29.086Z,4.00
2018-05-03T01:24:57.509Z,3.87
2018-05-03T01:27:25.196Z,3.90
2018-05-03T01:29:53.599Z,3.87
2018-05-03T01:32:23.591Z,3.80
2018-05-03T01:37:59.201Z,4.00
2018-05-03T01:40:29.696Z,3.33
2018-05-03T01:42:58.903Z,3.60
2018-05-03T01:45:29.105Z,3.60
2018-05-03T01:47:57.169Z,4.30
2018-05-03T01:50:26.346Z,3.90
2018-05-03T01:52:55.164Z,3.80
2018-05-03T01:55:27.924Z,3.87
2018-05-03T01:57:56.006Z,4.20
2018-05-03T02:00:24.059Z,3.60
2018-05-03T02:02:52.888Z,3.90
2018-05-03T02:05:22.071Z,4.40
2018-05-03T02:07:49.922Z,3.97
2018-05-03T02:10:22.182Z,4.77
2018-05-03T02:12:51.479Z,4.60
2018-05-03T02:15:21.002Z,4.07
2018-05-03T02:17:49.038Z,4.47
2018-05-03T02:20:24.922Z,4.40
2018-05-03T02:22:52.574Z,4.47
2018-05-03T02:25:26.205Z,4.47
2018-05-03T02:27:54.297Z,4.43
2018-05-03T02:30:23.276Z,4.37
2018-05-03T02:32:51.700Z,4.50
2018-05-03T02:35:24.157Z,5.03
2018-05-03T02:37:52.245Z,4.87
2018-05-03T02:40:24.505Z,4.57
2018-05-03T02:42:53.021Z,4.70
2018-05-03T02:45:21.082Z,5.10
2018-05-03T02:47:49.503Z,5.17
2018-05-03T02:50:28.409Z,4.77
2018-05-03T02:52:56.891Z,5.27
2018-05-03T02:55:26.682Z,4.77
2018-05-03T02:58:12.340Z,4.90
2018-05-03T03:03:50.384Z,5.17
2018-05-03T03:06:40.003Z,5.73
2018-05-03T03:26:49.416Z,5.63
2018-05-03T03:32:20.729Z,5.70
2018-05-03T03:38:00.288Z,5.90
2018-05-03T03:40:40.519Z,5.43
2018-05-03T03:43:20.448Z,6.73
2018-05-03T03:45:48.860Z,6.23
2018-05-03T03:48:16.508Z,6.30
2018-05-03T03:50:45.306Z,6.77
2018-05-03T03:53:14.530Z,7.50
2018-05-03T03:55:42.868Z,7.67
2018-05-03T03:58:11.285Z,7.63
2018-05-03T04:00:39.333Z,8.03
2018-05-03T04:03:08.327Z,8.97
2018-05-03T04:05:36.391Z,8.70
2018-05-03T04:08:04.027Z,8.97
2018-05-03T04:10:32.782Z,7.90
2018-05-03T04:13:00.477Z,7.60
2018-05-03T04:15:28.842Z,7.07
2018-05-03T04:18:08.364Z,6.90
2018-05-03T04:21:02.349Z,6.30
2018-05-03T04:23:43.350Z,6.70
2018-05-03T04:26:12.138Z,6.07
2018-05-03T04:28:40.189Z,6.43
2018-05-03T04:31:08.678Z,6.50
2018-05-03T04:33:37.060Z,6.83
2018-05-03T04:36:06.034Z,5.97
2018-05-03T04:38:34.069Z,6.77
2018-05-03T04:41:01.837Z,5.73
2018-05-03T04:43:30.240Z,6.00
2018-05-03T04:45:59.391Z,6.30
2018-05-03T04:48:27.558Z,7.23
2018-05-03T04:50:55.998Z,7.93
2018-05-03T04:53:24.373Z,7.90
2018-05-03T04:55:52.054Z,8.37
2018-05-03T04:58:20.832Z,8.00
2018-05-03T05:00:48.849Z,7.97
2018-05-03T05:03:17.424Z,8.70
2018-05-03T05:05:46.552Z,8.70
2018-05-03T05:08:15.707Z,8.27
2018-05-03T05:10:43.347Z,9.07
2018-05-03T05:13:11.760Z,9.03
2018-05-03T05:15:39.451Z,9.37
2018-05-03T05:18:08.607Z,8.80
2018-05-03T05:20:36.242Z,9.23
2018-05-03T05:23:05.045Z,9.80
2018-05-03T05:25:33.830Z,10.07
2018-05-03T05:28:02.256Z,9.40
2018-05-03T05:30:30.305Z,9.67
2018-05-03T05:32:58.453Z,9.97
2018-05-03T05:35:26.838Z,9.43
2018-05-03T05:37:54.485Z,10.20
2018-05-03T05:40:22.145Z,11.83
2018-05-03T05:42:50.621Z,10.10
2018-05-03T05:45:19.017Z,9.97
2018-05-03T05:47:47.833Z,9.93
2018-05-03T05:50:15.927Z,10.43
2018-05-03T05:52:44.014Z,10.50
2018-05-03T05:55:12.443Z,10.17
2018-05-03T05:57:40.102Z,10.43
2018-05-03T06:00:07.780Z,10.73
2018-05-03T06:02:36.352Z,10.43
2018-05-03T06:05:04.021Z,10.43
2018-05-03T06:07:32.441Z,9.83
2018-05-03T06:10:01.608Z,9.07
2018-05-03T06:12:30.742Z,8.90
2018-05-03T06:14:58.400Z,9.07
2018-05-03T06:17:26.848Z,10.43
2018-05-03T06:19:55.239Z,9.50
2018-05-03T06:22:24.442Z,10.30
2018-05-03T06:24:52.488Z,9.60
2018-05-03T06:27:20.112Z,9.80
2018-05-03T06:29:48.585Z,9.70
2018-05-03T06:32:16.241Z,8.77
2018-05-03T06:34:45.229Z,8.17
2018-05-03T06:37:12.911Z,9.53
2018-05-03T06:39:41.906Z,7.53
2018-05-03T06:42:10.924Z,8.07
2018-05-03T06:44:39.314Z,8.50
2018-05-03T06:47:07.757Z,7.40
2018-05-03T06:49:36.772Z,7.30
2018-05-03T06:52:05.644Z,6.87
2018-05-03T06:54:34.036Z,6.20
2018-05-03T06:57:03.196Z,6.37
2018-05-03T06:59:31.257Z,5.50
2018-05-03T07:01:59.681Z,5.80
2018-05-03T07:04:28.556Z,4.17
2018-05-03T07:06:57.690Z,5.63
2018-05-03T07:09:25.758Z,4.80
2018-05-03T07:11:54.204Z,5.63
2018-05-03T07:14:21.848Z,4.90
2018-05-03T07:16:50.273Z,4.73
2018-05-03T07:19:19.034Z,5.17
2018-05-03T07:21:47.076Z,4.77
2018-05-03T07:24:15.118Z,4.73
2018-05-03T07:26:43.171Z,3.93
2018-05-03T07:29:10.800Z,4.40
2018-05-03T07:31:38.455Z,4.10
2018-05-03T07:34:06.518Z,4.20
2018-05-03T07:36:34.545Z,3.97
2018-05-03T07:39:02.313Z,3.90
2018-05-03T07:41:30.715Z,2.90
2018-05-03T07:43:58.324Z,2.50
2018-05-03T07:46:25.970Z,2.27
2018-05-03T07:48:54.372Z,2.93
2018-05-03T07:51:22.048Z,2.23
2018-05-03T07:53:49.709Z,2.50
2018-05-03T07:56:18.150Z,2.77
2018-05-03T07:58:46.164Z,2.87
2018-05-03T08:01:14.589Z,2.63
2018-05-03T08:03:42.248Z,2.30
2018-05-03T08:06:09.898Z,2.57
2018-05-03T08:08:37.547Z,2.60
2018-05-03T08:11:05.590Z,3.07
2018-05-03T08:13:33.365Z,3.17
2018-05-03T08:16:02.129Z,2.83
2018-05-03T08:18:29.824Z,2.70
2018-05-03T08:20:58.262Z,2.90
2018-05-03T08:23:27.233Z,2.90
2018-05-03T08:25:55.304Z,2.40
2018-05-03T08:28:23.706Z,2.87
2018-05-03T08:30:52.877Z,2.77
2018-05-03T08:33:22.012Z,2.30
2018-05-03T08:35:51.539Z,2.97
2018-05-03T08:38:19.154Z,2.83
2018-05-03T08:40:47.560Z,2.73
2018-05-03T08:43:15.980Z,2.43
2018-05-03T08:45:43.645Z,2.30
2018-05-03T08:48:11.723Z,1.97
2018-05-03T08:50:40.127Z,2.20
2018-05-03T08:53:07.775Z,2.27
2018-05-03T08:55:36.600Z,2.07
2018-05-03T08:58:05.592Z,2.20
2018-05-03T09:00:33.241Z,1.97
2018-05-03T09:03:00.878Z,1.90
2018-05-03T09:05:29.271Z,2.07
2018-05-03T09:07:56.925Z,2.17
2018-05-03T09:10:25.320Z,1.83
2018-05-03T09:12:52.967Z,2.10
2018-05-03T09:15:20.620Z,2.23
2018-05-03T09:17:48.670Z,2.17
2018-05-03T09:20:16.686Z,2.10
2018-05-03T09:22:44.752Z,1.97
2018-05-03T09:25:13.165Z,1.77
2018-05-03T09:27:40.820Z,2.03
2018-05-03T09:30:09.614Z,2.20
2018-05-03T09:32:37.688Z,2.40
2018-05-03T09:35:05.702Z,2.03
2018-05-03T09:37:33.753Z,2.07
2018-05-03T09:40:02.579Z,2.23
2018-05-03T09:42:31.358Z,2.53
2018-05-03T09:44:59.518Z,2.27
2018-05-03T09:47:27.553Z,2.20
2018-05-03T09:49:55.174Z,2.90
2018-05-03T09:52:22.929Z,2.23
2018-05-03T09:54:51.293Z,2.00
2018-05-03T09:57:20.442Z,2.50
2018-05-03T09:59:48.076Z,2.10
2018-05-03T10:02:16.124Z,2.60
2018-05-03T10:04:44.187Z,1.90
2018-05-03T10:07:12.623Z,2.50
2018-05-03T10:09:41.379Z,2.30
2018-05-03T10:12:10.593Z,2.43
2018-05-03T10:14:38.643Z,2.33
2018-05-03T10:17:07.739Z,2.63
2018-05-03T10:19:36.179Z,2.03
2018-05-03T10:22:04.284Z,2.60
2018-05-03T10:24:31.934Z,2.40
2018-05-03T10:26:59.569Z,1.90
2018-05-03T10:29:28.007Z,2.17
2018-05-03T10:31:55.628Z,1.97
2018-05-03T10:34:23.287Z,2.07
2018-05-03T10:36:51.724Z,2.23
2018-05-03T10:39:20.139Z,1.97
2018-05-03T10:41:48.504Z,2.40
2018-05-03T10:44:16.116Z,1.80
2018-05-03T10:46:44.567Z,2.47
2018-05-03T10:49:12.286Z,2.47
2018-05-03T10:51:39.917Z,2.10
2018-05-03T10:54:08.317Z,1.70
2018-05-03T10:56:36.011Z,2.10
2018-05-03T10:59:04.810Z,2.13
2018-05-03T11:01:32.443Z,2.50
2018-05-03T11:04:00.859Z,2.00
2018-05-03T11:06:28.542Z,2.10
2018-05-03T11:08:57.557Z,2.10
2018-05-03T11:11:25.193Z,2.20
2018-05-03T11:13:53.584Z,2.00
2018-05-03T11:16:22.017Z,2.00
2018-05-03T11:18:50.023Z,2.40
2018-05-03T11:21:17.675Z,2.07
2018-05-03T11:23:46.477Z,2.00
2018-05-03T11:26:15.657Z,2.60
2018-05-03T11:28:43.425Z,2.00
2018-05-03T11:31:11.047Z,2.50
2018-05-03T11:33:39.077Z,2.90
2018-05-03T11:36:07.117Z,3.17
2018-05-03T11:38:34.767Z,2.77
2018-05-03T11:41:02.925Z,2.77
2018-05-03T11:43:30.537Z,2.83
2018-05-03T11:45:58.941Z,2.57
2018-05-03T11:48:26.588Z,2.00
2018-05-03T11:50:55.732Z,2.60
2018-05-03T11:53:23.401Z,2.63
2018-05-03T11:55:51.027Z,2.77
2018-05-03T11:58:19.505Z,2.20
2018-05-03T12:00:47.162Z,2.50
2018-05-03T12:03:15.948Z,2.70
2018-05-03T12:05:44.377Z,2.40
2018-05-03T12:08:12.137Z,2.37
2018-05-03T12:10:39.844Z,2.33
2018-05-03T12:13:08.617Z,2.43
2018-05-03T12:15:36.267Z,2.07
2018-05-03T12:18:06.863Z,2.57
2018-05-03T12:20:35.315Z,2.50
2018-05-03T12:23:02.941Z,2.47
2018-05-03T12:25:30.646Z,2.70
2018-05-03T12:27:59.779Z,2.60
2018-05-03T12:30:27.808Z,2.30
2018-05-03T12:32:55.832Z,2.40
2018-05-03T12:35:24.268Z,2.30
2018-05-03T12:37:52.297Z,2.30
2018-05-03T12:40:19.957Z,1.80
2018-05-03T12:42:48.723Z,2.73
2018-05-03T12:45:16.417Z,2.10
2018-05-03T12:47:44.042Z,2.20
2018-05-03T12:50:12.481Z,2.37
2018-05-03T12:52:40.111Z,2.17
2018-05-03T12:55:07.754Z,2.17
2018-05-03T12:57:35.787Z,2.33
2018-05-03T13:00:04.275Z,2.90
2018-05-03T13:02:31.933Z,2.43
2018-05-03T13:04:59.959Z,2.70
2018-05-03T13:07:28.761Z,2.73
2018-05-03T13:09:57.895Z,2.93
2018-05-03T13:12:25.616Z,2.77
2018-05-03T13:14:53.347Z,2.70
2018-05-03T13:17:21.778Z,2.90
2018-05-03T13:19:49.803Z,2.60
2018-05-03T13:22:18.233Z,2.90
2018-05-03T13:24:47.396Z,2.50
2018-05-03T13:27:15.072Z,2.37
2018-05-03T13:29:43.497Z,2.50
2018-05-03T13:32:11.171Z,2.60
2018-05-03T13:34:39.182Z,2.80
2018-05-03T13:37:06.869Z,2.80
2018-05-03T13:39:35.263Z,2.70
2018-05-03T13:42:02.934Z,2.30
2018-05-03T13:44:30.987Z,2.70
2018-05-03T13:46:59.012Z,2.63
2018-05-03T13:49:26.742Z,2.50
2018-05-03T13:51:55.130Z,2.77
2018-05-03T13:54:22.748Z,2.70
2018-05-03T13:56:50.791Z,2.70
2018-05-03T13:59:18.817Z,2.23
2018-05-03T14:01:46.588Z,2.33
2018-05-03T14:04:14.203Z,2.47
2018-05-03T14:06:42.600Z,2.80
2018-05-03T14:09:10.305Z,2.40
2018-05-03T14:11:37.925Z,2.97
2018-05-03T14:14:06.377Z,3.00
2018-05-03T14:16:35.372Z,2.67
2018-05-03T14:19:03.005Z,2.83
2018-05-03T14:21:30.643Z,2.63
2018-05-03T14:23:59.418Z,2.27
2018-05-03T14:26:27.060Z,2.50
2018-05-03T14:28:55.571Z,3.27
2018-05-03T14:31:23.237Z,2.53
2018-05-03T14:33:51.998Z,2.30
2018-05-03T14:36:20.478Z,2.37
2018-05-03T14:38:48.508Z,2.60
2018-05-03T14:41:16.153Z,2.50
2018-05-03T14:43:44.956Z,2.80
2018-05-03T14:46:12.748Z,2.50
2018-05-03T14:48:41.133Z,2.53
2018-05-03T14:51:10.299Z,2.10
2018-05-03T14:53:37.977Z,2.40
2018-05-03T14:56:06.395Z,2.63
2018-05-03T14:58:34.045Z,2.60
2018-05-03T15:01:02.570Z,2.70
2018-05-03T15:03:30.912Z,2.10
2018-05-03T15:05:59.305Z,2.67
2018-05-03T15:08:27.405Z,2.60
2018-05-03T15:10:55.794Z,2.20
2018-05-03T15:13:23.419Z,2.80
2018-05-03T15:15:52.199Z,2.03
2018-05-03T15:18:19.890Z,1.97
2018-05-03T15:20:48.257Z,2.43
2018-05-03T15:23:15.873Z,2.70
2018-05-03T15:25:44.684Z,2.93
2018-05-03T15:28:13.849Z,2.53
2018-05-03T15:30:41.906Z,2.50
2018-05-03T15:33:10.304Z,2.50
2018-05-03T15:35:39.472Z,3.13
2018-05-03T15:38:07.228Z,2.83
2018-05-03T15:40:35.661Z,2.90
2018-05-03T15:43:03.312Z,2.60
2018-05-03T15:45:32.491Z,3.00
2018-05-03T15:48:01.255Z,2.73
2018-05-03T15:50:28.883Z,2.97
2018-05-03T15:52:56.521Z,2.47
2018-05-03T15:55:24.923Z,2.60
2018-05-03T15:57:52.585Z,2.90
2018-05-03T16:00:20.217Z,2.80
2018-05-03T16:02:48.712Z,2.57
2018-05-03T16:05:17.082Z,3.30
2018-05-03T16:07:45.530Z,2.83
2018-05-03T16:10:13.159Z,2.67
2018-05-03T16:12:41.916Z,2.83
2018-05-03T16:15:10.330Z,2.63
2018-05-03T16:17:37.970Z,2.43
2018-05-03T16:20:06.523Z,2.53
2018-05-03T16:22:35.511Z,2.63
2018-05-03T16:25:04.285Z,2.30
2018-05-03T16:27:32.375Z,2.50
2018-05-03T16:30:00.213Z,2.70
2018-05-03T16:32:28.665Z,2.67
2018-05-03T16:34:56.647Z,3.27
2018-05-03T16:37:25.435Z,2.60
2018-05-03T16:39:53.070Z,2.40
2018-05-03T16:42:21.521Z,2.77
2018-05-03T16:44:49.253Z,2.60
2018-05-03T16:47:16.880Z,2.93
2018-05-03T16:49:45.303Z,2.90
2018-05-03T16:52:13.733Z,3.20
2018-05-03T16:54:42.150Z,2.40
2018-05-03T16:57:10.573Z,2.80
2018-05-03T16:59:38.595Z,2.97
2018-05-03T17:02:07.627Z,2.60
2018-05-03T17:04:36.080Z,2.47
2018-05-03T17:07:05.312Z,2.70
2018-05-03T17:09:32.986Z,2.20
2018-05-03T17:12:01.865Z,3.30
2018-05-03T17:14:30.683Z,2.60
2018-05-03T17:16:58.353Z,2.47
2018-05-03T17:19:26.819Z,3.60
2018-05-03T17:21:55.224Z,3.97
2018-05-03T17:24:23.659Z,3.00
2018-05-03T17:26:52.221Z,2.80
2018-05-03T17:29:19.953Z,3.83
2018-05-03T17:31:47.628Z,5.30
2018-05-03T17:34:16.620Z,3.80
2018-05-03T17:36:44.257Z,3.27
2018-05-03T17:39:12.788Z,3.00
2018-05-03T17:41:41.624Z,3.23
2018-05-03T17:44:09.295Z,3.20
2018-05-03T17:46:36.955Z,3.23
2018-05-03T17:49:06.106Z,2.93
2018-05-03T17:51:34.217Z,4.17
2018-05-03T17:54:02.225Z,4.03
2018-05-03T17:56:29.891Z,3.47
2018-05-03T17:58:58.314Z,4.63
2018-05-03T18:01:27.118Z,3.63
2018-05-03T18:03:56.080Z,4.80
2018-05-03T18:06:23.707Z,4.57
2018-05-03T18:08:51.757Z,3.80
2018-05-03T18:11:19.797Z,3.27
2018-05-03T18:13:48.570Z,3.40
2018-05-03T18:16:16.267Z,2.77
2018-05-03T18:18:45.009Z,3.30
2018-05-03T18:21:14.063Z,3.90
2018-05-03T18:23:41.738Z,4.00
2018-05-03T18:26:09.586Z,3.23
2018-05-03T18:28:38.029Z,3.37
2018-05-03T18:31:06.439Z,2.67
2018-05-03T18:33:34.883Z,3.20
2018-05-03T18:36:03.549Z,2.60
2018-05-03T18:38:32.961Z,2.67
2018-05-03T18:41:01.962Z,2.90
2018-05-03T18:43:30.381Z,2.80
2018-05-03T18:45:59.168Z,3.13
2018-05-03T18:48:27.167Z,3.03
2018-05-03T18:50:55.572Z,3.50
2018-05-03T18:53:24.575Z,2.57
2018-05-03T18:55:53.578Z,3.30
2018-05-03T18:58:21.725Z,2.93
2018-05-03T19:00:49.749Z,3.20
2018-05-03T19:03:17.759Z,2.67
2018-05-03T19:05:46.231Z,3.17
2018-05-03T19:08:13.885Z,3.23
2018-05-03T19:10:42.314Z,3.40
2018-05-03T19:13:11.417Z,3.10
2018-05-03T19:15:38.968Z,3.63
2018-05-03T19:18:07.032Z,3.03
2018-05-03T19:20:36.062Z,2.97
2018-05-03T19:23:05.030Z,3.10
2018-05-03T19:25:34.205Z,3.70
2018-05-03T19:28:02.608Z,3.63
2018-05-03T19:30:31.614Z,2.97
2018-05-03T19:33:00.391Z,2.60
2018-05-03T19:35:29.695Z,2.87
2018-05-03T19:37:58.043Z,2.73
2018-05-03T19:40:27.117Z,2.87
2018-05-03T19:42:54.795Z,3.00
2018-05-03T19:45:23.966Z,3.03
2018-05-03T19:47:52.045Z,3.20
2018-05-03T19:50:20.443Z,2.83
2018-05-03T19:52:48.498Z,2.83
2018-05-03T19:55:16.114Z,2.73
2018-05-03T19:57:45.102Z,3.23
2018-05-03T20:00:14.269Z,3.17
2018-05-03T20:02:42.506Z,3.13
2018-05-03T20:05:11.091Z,3.27
2018-05-03T20:07:39.898Z,2.80
2018-05-03T20:10:08.385Z,3.30
2018-05-03T20:12:36.779Z,3.13
2018-05-03T20:15:04.448Z,3.93
2018-05-03T20:17:32.142Z,5.27
2018-05-03T20:20:00.536Z,5.63
2018-05-03T20:22:28.177Z,4.60
2018-05-03T20:24:56.272Z,3.90
2018-05-03T20:27:23.938Z,3.50
2018-05-03T20:29:51.988Z,3.40
2018-05-03T20:32:19.619Z,3.50
2018-05-03T20:34:47.287Z,3.70
2018-05-03T20:37:15.671Z,3.87
2018-05-03T20:39:44.483Z,3.63
2018-05-03T20:42:13.452Z,3.80
2018-05-03T20:44:41.505Z,4.13
2018-05-03T20:47:10.643Z,4.30
2018-05-03T20:49:38.342Z,3.33
2018-05-03T20:52:06.433Z,3.40
2018-05-03T20:54:34.481Z,3.83
2018-05-03T20:57:03.628Z,3.90
2018-05-03T20:59:32.800Z,3.43
2018-05-03T21:02:00.986Z,3.30
2018-05-03T21:04:29.031Z,3.73
2018-05-03T21:06:57.786Z,3.30
2018-05-03T21:09:26.804Z,4.17
2018-05-03T21:11:54.851Z,3.40
2018-05-03T21:14:22.484Z,3.90
2018-05-03T21:16:50.643Z,4.10
2018-05-03T21:19:18.695Z,3.77
2018-05-03T21:21:46.592Z,3.90
2018-05-03T21:24:15.043Z,3.33
2018-05-03T21:26:43.103Z,4.17
2018-05-03T21:29:11.513Z,3.80
2018-05-03T21:31:39.651Z,3.57
2018-05-03T21:34:08.860Z,3.33
2018-05-03T21:36:37.703Z,3.30
2018-05-03T21:39:05.598Z,3.13
2018-05-03T21:41:34.799Z,3.67
2018-05-03T21:44:03.613Z,3.20
2018-05-03T21:46:32.388Z,3.43
2018-05-03T21:49:00.777Z,3.40
2018-05-03T21:51:28.847Z,3.40
2018-05-03T21:53:56.667Z,3.77
2018-05-03T21:56:25.800Z,3.47
2018-05-03T21:58:54.213Z,4.10
2018-05-03T22:01:23.411Z,3.07
2018-05-03T22:03:51.905Z,3.33
2018-05-03T22:06:20.679Z,3.40
2018-05-03T22:08:48.304Z,4.43
2018-05-03T22:11:16.720Z,3.50
2018-05-03T22:13:45.540Z,3.57
2018-05-03T22:16:14.495Z,3.40
2018-05-03T22:18:43.261Z,3.63
2018-05-03T22:21:12.142Z,3.87
2018-05-03T22:23:40.540Z,3.73
2018-05-03T22:26:09.515Z,3.47
2018-05-03T22:28:37.150Z,3.80
2018-05-03T22:31:06.295Z,3.60
2018-05-03T22:33:34.726Z,3.77
2018-05-03T22:36:02.729Z,3.10
2018-05-03T22:38:30.381Z,3.70
2018-05-03T22:40:58.763Z,4.00
2018-05-03T22:43:27.177Z,3.83
2018-05-03T22:45:55.214Z,3.60
2018-05-03T22:48:24.359Z,3.30
2018-05-03T22:50:53.493Z,3.73
2018-05-03T22:53:21.101Z,3.50
2018-05-03T22:55:48.728Z,3.87
2018-05-03T22:58:17.155Z,4.37
2018-05-03T23:00:45.555Z,4.07
2018-05-03T23:03:14.594Z,3.60
2018-05-03T23:05:42.976Z,3.03
2018-05-03T23:08:10.597Z,3.93
2018-05-03T23:10:39.134Z,4.20
2018-05-03T23:13:08.073Z,4.10
2018-05-03T23:15:36.840Z,4.03
2018-05-03T23:18:05.987Z,4.30
2018-05-03T23:20:34.383Z,3.77
2018-05-03T23:23:02.445Z,3.80
2018-05-03T23:25:31.220Z,3.63
2018-05-03T23:27:58.879Z,3.77
2018-05-03T23:30:27.923Z,3.33
2018-05-03T23:32:55.522Z,3.30
2018-05-03T23:35:24.490Z,3.90
2018-05-03T23:37:52.919Z,3.57
2018-05-03T23:40:22.088Z,2.90
2018-05-03T23:42:50.235Z,3.03
2018-05-03T23:45:19.193Z,3.63
2018-05-03T23:47:47.224Z,3.40
2018-05-03T23:50:15.651Z,3.77
2018-05-03T23:52:43.687Z,3.60
2018-05-03T23:55:12.101Z,4.03
2018-05-03T23:57:41.084Z,3.90
